createdAt,value
2023-02-03T00:00:07.378Z,2.10
2023-02-03T00:02:34.419Z,2.30
2023-02-03T00:05:01.471Z,1.97
2023-02-03T00:07:28.639Z,2.40
2023-02-03T00:09:56.838Z,2.20
2023-02-03T00:12:24.102Z,2.33
2023-02-03T00:14:51.216Z,2.30
2023-02-03T00:17:18.276Z,2.30
2023-02-03T00:19:45.369Z,2.70
2023-02-03T00:22:13.393Z,2.17
2023-02-03T00:24:40.502Z,2.37
2023-02-03T00:27:07.577Z,2.20
2023-02-03T00:29:34.625Z,2.30
2023-02-03T00:32:01.764Z,2.13
2023-02-03T00:34:30.105Z,2.30
2023-02-03T00:36:57.267Z,2.33
2023-02-03T00:39:24.626Z,2.47
2023-02-03T00:41:51.681Z,2.50
2023-02-03T00:44:18.792Z,2.40
2023-02-03T00:46:45.925Z,2.43
2023-02-03T00:49:13.035Z,2.20
2023-02-03T00:51:40.085Z,2.50
2023-02-03T00:54:07.208Z,1.90
2023-02-03T00:56:34.258Z,2.00
2023-02-03T00:59:01.360Z,2.20
2023-02-03T01:01:28.521Z,1.77
2023-02-03T01:03:56.405Z,1.93
2023-02-03T01:06:24.208Z,1.90
2023-02-03T01:08:51.299Z,1.87
2023-02-03T01:11:22.326Z,1.70
2023-02-03T01:13:50.293Z,1.80
2023-02-03T01:16:18.190Z,1.60
2023-02-03T01:18:45.647Z,1.60
2023-02-03T01:21:14.814Z,1.53
2023-02-03T01:23:41.898Z,1.43
2023-02-03T01:26:10.807Z,2.40
2023-02-03T01:28:38.420Z,2.33
2023-02-03T01:31:11.984Z,1.77
2023-02-03T01:33:40.981Z,1.60
2023-02-03T01:36:10.912Z,1.50
2023-02-03T01:38:38.480Z,1.53
2023-02-03T01:41:06.880Z,1.27
2023-02-03T01:43:35.262Z,1.40
2023-02-03T01:46:04.509Z,1.07
2023-02-03T01:48:35.167Z,1.30
2023-02-03T01:51:03.094Z,1.33
2023-02-03T01:53:30.395Z,1.40
2023-02-03T01:55:57.781Z,1.30
2023-02-03T01:58:27.006Z,1.00
2023-02-03T02:00:55.608Z,1.00
2023-02-03T02:03:25.784Z,0.80
2023-02-03T02:06:00.645Z,0.80
2023-02-03T02:08:27.811Z,0.93
2023-02-03T02:10:55.052Z,0.70
2023-02-03T02:13:22.390Z,1.00
2023-02-03T02:16:01.754Z,0.87
2023-02-03T02:18:38.026Z,1.10
2023-02-03T02:21:20.147Z,0.90
2023-02-03T02:23:47.225Z,0.90
2023-02-03T02:26:20.534Z,1.07
2023-02-03T02:28:47.551Z,1.27
2023-02-03T02:31:17.831Z,1.40
2023-02-03T02:33:44.989Z,1.10
2023-02-03T02:36:30.735Z,1.70
2023-02-03T02:39:21.653Z,1.40
2023-02-03T02:41:56.117Z,1.83
2023-02-03T02:44:30.402Z,1.80
2023-02-03T02:47:03.532Z,0.90
2023-02-03T02:49:36.122Z,1.43
2023-02-03T02:52:04.822Z,1.40
2023-02-03T02:54:32.869Z,1.33
2023-02-03T02:57:04.162Z,1.27
2023-02-03T02:59:31.500Z,1.20
2023-02-03T03:01:58.631Z,1.40
2023-02-03T03:04:26.912Z,1.20
2023-02-03T03:06:57.032Z,1.50
2023-02-03T03:09:26.944Z,1.20
2023-02-03T03:11:56.966Z,1.13
2023-02-03T03:14:25.365Z,1.30
2023-02-03T03:16:58.390Z,1.40
2023-02-03T03:19:27.168Z,1.40
2023-02-03T03:21:56.315Z,1.20
2023-02-03T03:24:28.576Z,1.10
2023-02-03T03:27:10.952Z,1.50
2023-02-03T03:29:42.157Z,1.13
2023-02-03T03:32:09.267Z,0.80
2023-02-03T03:34:36.686Z,0.90
2023-02-03T03:37:22.358Z,0.80
2023-02-03T03:39:54.639Z,0.70
2023-02-03T03:42:26.732Z,0.90
2023-02-03T03:45:02.738Z,1.13
2023-02-03T03:47:35.705Z,0.90
2023-02-03T03:50:04.926Z,1.13
2023-02-03T03:52:34.736Z,1.00
2023-02-03T03:55:03.120Z,1.07
2023-02-03T03:57:53.203Z,1.00
2023-02-03T04:00:21.581Z,1.07
2023-02-03T04:02:51.996Z,1.07
2023-02-03T04:05:19.669Z,1.00
2023-02-03T04:07:47.524Z,1.40
2023-02-03T04:10:27.126Z,1.30
2023-02-03T04:12:54.373Z,1.27
2023-02-03T04:15:21.465Z,1.60
2023-02-03T04:17:48.575Z,1.33
2023-02-03T04:20:16.242Z,1.40
2023-02-03T04:22:43.328Z,1.67
2023-02-03T04:25:10.808Z,1.90
2023-02-03T04:27:38.045Z,1.43
2023-02-03T04:30:05.707Z,1.80
2023-02-03T04:32:32.774Z,2.10
2023-02-03T04:34:59.857Z,2.40
2023-02-03T04:37:26.978Z,2.27
2023-02-03T04:39:55.320Z,2.47
2023-02-03T04:42:23.078Z,2.30
2023-02-03T04:44:50.252Z,2.23
2023-02-03T04:47:17.847Z,2.30
2023-02-03T04:49:44.967Z,2.37
2023-02-03T04:52:12.283Z,2.80
2023-02-03T04:54:39.587Z,2.60
2023-02-03T04:57:07.026Z,2.67
2023-02-03T04:59:34.123Z,2.73
2023-02-03T05:02:03.554Z,2.57
2023-02-03T05:04:30.664Z,2.57
2023-02-03T05:06:57.766Z,3.00
2023-02-03T05:09:25.640Z,3.00
2023-02-03T05:11:53.066Z,2.97
2023-02-03T05:14:20.436Z,2.77
2023-02-03T05:16:47.864Z,3.20
2023-02-03T05:19:15.022Z,3.20
2023-02-03T05:21:42.090Z,2.90
2023-02-03T05:24:09.294Z,2.80
2023-02-03T05:26:36.696Z,2.60
2023-02-03T05:29:04.142Z,2.73
2023-02-03T05:31:31.279Z,3.00
2023-02-03T05:33:58.377Z,3.20
2023-02-03T05:36:25.431Z,2.97
2023-02-03T05:38:52.501Z,3.47
2023-02-03T05:41:39.855Z,3.10
2023-02-03T05:44:06.946Z,3.37
2023-02-03T05:46:34.006Z,3.33
2023-02-03T05:49:01.026Z,3.07
2023-02-03T05:51:28.437Z,3.30
2023-02-03T05:53:55.549Z,3.97
2023-02-03T05:56:22.778Z,3.57
2023-02-03T05:58:53.115Z,3.30
2023-02-03T06:01:20.580Z,3.20
2023-02-03T06:03:48.383Z,3.40
2023-02-03T06:06:16.383Z,3.27
2023-02-03T06:08:43.753Z,3.50
2023-02-03T06:11:11.403Z,3.47
2023-02-03T06:13:38.962Z,3.30
2023-02-03T06:16:06.514Z,3.73
2023-02-03T06:18:33.548Z,3.37
2023-02-03T06:21:00.614Z,3.80
2023-02-03T06:23:27.707Z,3.50
2023-02-03T06:25:55.494Z,3.70
2023-02-03T06:28:22.619Z,3.63
2023-02-03T06:30:53.211Z,3.43
2023-02-03T06:33:20.904Z,3.07
2023-02-03T06:35:48.268Z,3.17
2023-02-03T06:38:15.357Z,3.43
2023-02-03T06:40:42.384Z,3.23
2023-02-03T06:43:09.526Z,3.20
2023-02-03T06:45:36.641Z,3.23
2023-02-03T06:48:03.840Z,2.87
2023-02-03T06:50:30.996Z,3.10
2023-02-03T06:52:58.056Z,3.00
2023-02-03T06:55:25.127Z,3.20
2023-02-03T06:57:52.193Z,2.90
2023-02-03T07:00:19.666Z,3.47
2023-02-03T07:02:47.290Z,3.40
2023-02-03T07:05:14.415Z,3.40
2023-02-03T07:07:41.507Z,3.30
2023-02-03T07:10:08.727Z,3.33
2023-02-03T07:12:36.759Z,2.90
2023-02-03T07:15:04.859Z,3.10
2023-02-03T07:17:32.012Z,2.97
2023-02-03T07:19:59.154Z,3.10
2023-02-03T07:22:26.200Z,2.70
2023-02-03T07:24:53.235Z,2.77
2023-02-03T07:27:20.397Z,2.83
2023-02-03T07:29:47.446Z,2.67
2023-02-03T07:32:14.541Z,2.57
2023-02-03T07:34:41.787Z,2.70
2023-02-03T07:37:08.883Z,2.63
2023-02-03T07:39:35.955Z,1.93
2023-02-03T07:42:03.030Z,2.30
2023-02-03T07:44:30.154Z,2.60
2023-02-03T07:46:57.484Z,2.37
2023-02-03T07:49:24.631Z,2.53
2023-02-03T07:51:51.676Z,2.37
2023-02-03T07:54:18.775Z,2.27
2023-02-03T07:56:45.824Z,2.33
2023-02-03T07:59:12.917Z,2.70
2023-02-03T08:01:40.025Z,2.30
2023-02-03T08:04:07.125Z,2.20
2023-02-03T08:06:34.205Z,2.50
2023-02-03T08:09:01.320Z,2.33
2023-02-03T08:11:28.381Z,2.40
2023-02-03T08:13:55.449Z,2.40
2023-02-03T08:16:22.550Z,1.83
2023-02-03T08:18:49.695Z,2.10
2023-02-03T08:21:16.805Z,2.10
2023-02-03T08:23:43.877Z,1.90
2023-02-03T08:26:10.934Z,1.90
2023-02-03T08:28:38.039Z,2.00
2023-02-03T08:31:10.323Z,1.87
2023-02-03T08:33:37.491Z,2.00
2023-02-03T08:36:05.788Z,2.00
2023-02-03T08:38:33.080Z,2.00
2023-02-03T08:41:00.176Z,1.83
2023-02-03T08:43:27.325Z,2.07
2023-02-03T08:45:54.451Z,2.10
2023-02-03T08:48:21.604Z,1.90
2023-02-03T08:50:52.735Z,2.00
2023-02-03T08:53:19.897Z,2.00
2023-02-03T08:55:47.216Z,1.73
2023-02-03T08:58:14.342Z,2.07
2023-02-03T09:00:41.613Z,1.90
2023-02-03T09:03:08.665Z,2.10
2023-02-03T09:05:36.342Z,2.20
2023-02-03T09:08:03.687Z,1.90
2023-02-03T09:10:31.065Z,1.70
2023-02-03T09:12:58.346Z,2.10
2023-02-03T09:15:26.259Z,1.70
2023-02-03T09:17:55.325Z,1.80
2023-02-03T09:20:24.513Z,2.17
2023-02-03T09:22:51.856Z,2.13
2023-02-03T09:25:19.031Z,2.00
2023-02-03T09:27:46.145Z,2.00
2023-02-03T09:30:14.455Z,2.13
2023-02-03T09:32:41.550Z,2.30
2023-02-03T09:35:08.941Z,1.80
2023-02-03T09:37:36.034Z,1.90
2023-02-03T09:40:03.323Z,2.00
2023-02-03T09:42:57.354Z,2.10
2023-02-03T09:45:28.895Z,2.10
2023-02-03T09:47:58.941Z,2.00
2023-02-03T09:50:29.044Z,2.20
2023-02-03T09:52:56.915Z,2.13
2023-02-03T09:55:24.109Z,1.93
2023-02-03T09:57:57.004Z,2.60
2023-02-03T10:00:27.735Z,2.30
2023-02-03T10:02:55.086Z,2.07
2023-02-03T10:05:28.196Z,2.23
2023-02-03T10:07:55.288Z,2.30
2023-02-03T10:10:35.989Z,2.03
2023-02-03T10:13:10.077Z,2.20
2023-02-03T10:15:42.880Z,2.30
2023-02-03T10:18:14.634Z,2.87
2023-02-03T10:20:44.026Z,2.43
2023-02-03T10:23:19.059Z,2.13
2023-02-03T10:25:57.854Z,2.30
2023-02-03T10:28:38.205Z,2.43
2023-02-03T10:31:10.129Z,2.07
2023-02-03T10:33:37.242Z,2.13
2023-02-03T10:36:04.304Z,2.20
2023-02-03T10:38:50.165Z,1.97
2023-02-03T10:41:18.472Z,1.97
2023-02-03T10:43:52.869Z,2.13
2023-02-03T10:46:20.137Z,1.80
2023-02-03T10:48:47.324Z,2.20
2023-02-03T10:51:22.487Z,2.00
2023-02-03T10:53:53.245Z,2.30
2023-02-03T10:56:22.766Z,1.80
2023-02-03T10:58:54.296Z,1.87
2023-02-03T11:01:23.263Z,1.80
2023-02-03T11:03:58.967Z,1.70
2023-02-03T11:06:26.192Z,1.70
2023-02-03T11:08:53.303Z,2.00
2023-02-03T11:11:25.396Z,1.77
2023-02-03T11:14:04.527Z,1.60
2023-02-03T11:16:33.314Z,1.70
2023-02-03T11:19:01.250Z,1.53
2023-02-03T11:21:28.444Z,1.60
2023-02-03T11:24:14.301Z,1.60
2023-02-03T11:26:46.037Z,1.67
2023-02-03T11:29:28.268Z,1.80
2023-02-03T11:31:56.557Z,1.77
2023-02-03T11:34:34.985Z,1.90
2023-02-03T11:37:25.937Z,1.53
2023-02-03T11:39:55.856Z,1.90
2023-02-03T11:42:23.887Z,1.83
2023-02-03T11:44:51.124Z,1.50
2023-02-03T11:47:18.782Z,1.60
2023-02-03T11:50:00.087Z,1.33
2023-02-03T11:52:33.015Z,1.63
2023-02-03T11:55:00.049Z,1.40
2023-02-03T11:57:39.373Z,1.67
2023-02-03T12:00:06.558Z,1.60
2023-02-03T12:02:42.808Z,1.30
2023-02-03T12:05:24.850Z,1.17
2023-02-03T12:07:51.895Z,1.40
2023-02-03T12:10:26.829Z,1.20
2023-02-03T12:13:13.024Z,1.17
2023-02-03T12:15:50.030Z,1.27
2023-02-03T12:18:29.389Z,0.97
2023-02-03T12:21:14.535Z,0.90
2023-02-03T12:23:47.431Z,1.10
2023-02-03T12:26:14.586Z,1.00
2023-02-03T12:28:41.686Z,0.87
2023-02-03T12:31:14.996Z,1.00
2023-02-03T12:33:53.449Z,0.83
2023-02-03T12:36:29.931Z,0.90
2023-02-03T12:39:00.195Z,0.70
2023-02-03T12:41:29.574Z,0.80
2023-02-03T12:44:02.790Z,0.70
2023-02-03T12:46:43.297Z,1.00
2023-02-03T12:49:16.568Z,1.00
2023-02-03T12:51:50.578Z,1.10
2023-02-03T12:54:17.658Z,1.00
2023-02-03T12:56:45.317Z,1.00
2023-02-03T12:59:31.073Z,1.17
2023-02-03T13:02:04.477Z,1.10
2023-02-03T13:04:42.723Z,1.10
2023-02-03T13:07:09.814Z,1.30
2023-02-03T13:09:55.473Z,1.10
2023-02-03T13:12:38.330Z,1.30
2023-02-03T13:15:27.168Z,1.60
2023-02-03T13:18:04.574Z,1.20
2023-02-03T13:20:35.898Z,1.27
2023-02-03T13:23:10.423Z,0.90
2023-02-03T13:25:37.451Z,1.13
2023-02-03T13:28:07.338Z,0.73
2023-02-03T13:31:04.015Z,0.80
2023-02-03T13:33:31.115Z,0.80
2023-02-03T13:36:27.819Z,0.70
2023-02-03T13:39:16.640Z,1.00
2023-02-03T13:41:50.027Z,1.07
2023-02-03T13:44:19.409Z,1.33
2023-02-03T13:46:49.294Z,1.23
2023-02-03T13:49:23.411Z,1.30
2023-02-03T13:51:50.600Z,1.17
2023-02-03T13:54:35.335Z,1.93
2023-02-03T13:57:20.933Z,1.33
2023-02-03T13:59:49.622Z,1.37
2023-02-03T14:02:19.923Z,1.13
2023-02-03T14:04:47.035Z,1.50
2023-02-03T14:07:35.468Z,1.20
2023-02-03T14:10:15.130Z,1.50
2023-02-03T14:13:04.249Z,1.47
2023-02-03T14:15:32.708Z,1.50
2023-02-03T14:18:02.664Z,1.30
2023-02-03T14:20:31.570Z,1.40
2023-02-03T14:23:00.729Z,1.53
2023-02-03T14:25:28.577Z,1.70
2023-02-03T14:28:06.044Z,1.10
2023-02-03T14:30:33.353Z,1.43
2023-02-03T14:33:01.307Z,1.53
2023-02-03T14:35:31.425Z,1.43
2023-02-03T14:38:01.359Z,1.30
2023-02-03T14:40:36.085Z,1.97
2023-02-03T14:43:10.532Z,1.70
2023-02-03T14:45:50.966Z,1.60
2023-02-03T14:48:23.951Z,1.93
2023-02-03T14:51:05.008Z,1.80
2023-02-03T14:53:41.768Z,1.67
2023-02-03T14:56:15.317Z,1.27
2023-02-03T14:58:45.561Z,1.83
2023-02-03T15:01:24.679Z,1.33
2023-02-03T15:04:10.440Z,1.87
2023-02-03T15:06:47.907Z,1.40
2023-02-03T15:09:28.080Z,2.07
2023-02-03T15:11:55.144Z,1.40
2023-02-03T15:14:25.439Z,1.53
2023-02-03T15:16:56.734Z,1.80
2023-02-03T15:19:25.391Z,1.60
2023-02-03T15:21:52.680Z,1.87
2023-02-03T15:24:22.905Z,1.80
2023-02-03T15:26:54.474Z,2.10
2023-02-03T15:29:24.826Z,1.90
2023-02-03T15:31:54.867Z,2.23
2023-02-03T15:34:30.621Z,1.60
2023-02-03T15:36:59.570Z,2.17
2023-02-03T15:39:26.623Z,2.13
2023-02-03T15:41:55.443Z,2.00
2023-02-03T15:44:33.977Z,2.50
2023-02-03T15:47:02.861Z,2.13
2023-02-03T15:49:39.947Z,2.57
2023-02-03T15:52:19.563Z,2.07
2023-02-03T15:54:53.426Z,2.40
2023-02-03T15:57:20.493Z,2.10
2023-02-03T15:59:52.722Z,1.80
2023-02-03T16:02:22.208Z,1.83
2023-02-03T16:04:50.141Z,1.90
2023-02-03T16:07:19.174Z,3.23
2023-02-03T16:09:46.217Z,2.50
2023-02-03T16:12:23.519Z,1.83
2023-02-03T16:14:50.967Z,1.87
2023-02-03T16:17:21.165Z,1.73
2023-02-03T16:19:51.224Z,2.27
2023-02-03T16:22:33.004Z,1.90
2023-02-03T16:25:13.592Z,2.20
2023-02-03T16:27:40.737Z,2.60
2023-02-03T16:30:26.460Z,1.90
2023-02-03T16:33:41.033Z,2.20
2023-02-03T16:36:31.027Z,2.23
2023-02-03T16:39:17.491Z,2.00
2023-02-03T16:42:03.396Z,1.60
2023-02-03T16:44:49.240Z,2.23
2023-02-03T16:47:42.348Z,1.90
2023-02-03T16:50:38.121Z,2.30
2023-02-03T16:53:07.077Z,2.43
2023-02-03T16:55:34.415Z,2.00
2023-02-03T16:58:01.564Z,2.43
2023-02-03T17:00:28.645Z,2.10
2023-02-03T17:02:58.396Z,2.07
2023-02-03T17:05:25.714Z,1.80
2023-02-03T17:07:52.896Z,1.57
2023-02-03T17:10:19.992Z,2.17
2023-02-03T17:12:47.109Z,2.00
2023-02-03T17:15:14.252Z,1.70
2023-02-03T17:17:41.425Z,1.63
2023-02-03T17:20:08.688Z,2.10
2023-02-03T17:22:35.835Z,1.80
2023-02-03T17:25:02.878Z,1.87
2023-02-03T17:27:29.946Z,1.83
2023-02-03T17:29:56.970Z,1.60
2023-02-03T17:32:24.359Z,2.40
2023-02-03T17:34:51.416Z,2.07
2023-02-03T17:37:18.494Z,1.93
2023-02-03T17:53:31.367Z,3.23
2023-02-03T17:55:59.378Z,2.47
2023-02-03T17:58:26.449Z,2.00
2023-02-03T18:00:53.573Z,2.00
2023-02-03T18:03:20.648Z,2.13
2023-02-03T18:05:51.759Z,1.80
2023-02-03T18:08:20.549Z,1.73
2023-02-03T18:10:51.443Z,2.00
2023-02-03T18:13:18.690Z,2.20
2023-02-03T18:15:45.758Z,2.03
2023-02-03T18:18:13.151Z,1.80
2023-02-03T18:20:40.234Z,1.80
2023-02-03T18:23:07.272Z,1.80
2023-02-03T18:25:35.984Z,1.67
2023-02-03T18:28:03.171Z,1.60
2023-02-03T18:30:30.622Z,1.77
2023-02-03T18:33:01.572Z,1.37
2023-02-03T18:35:29.546Z,1.80
2023-02-03T18:37:56.717Z,1.93
2023-02-03T18:40:23.803Z,1.80
2023-02-03T18:42:50.906Z,2.27
2023-02-03T18:45:18.043Z,2.00
2023-02-03T18:47:45.146Z,1.80
2023-02-03T18:50:12.252Z,1.97
2023-02-03T18:52:39.296Z,1.90
2023-02-03T18:55:06.536Z,1.80
2023-02-03T18:57:33.628Z,2.10
2023-02-03T19:00:00.720Z,2.43
2023-02-03T19:02:28.124Z,2.17
2023-02-03T19:04:55.241Z,1.80
2023-02-03T19:07:23.246Z,1.50
2023-02-03T19:09:50.313Z,1.80
2023-02-03T19:12:17.384Z,1.43
2023-02-03T19:14:44.430Z,1.90
2023-02-03T19:17:11.561Z,2.13
2023-02-03T19:19:38.636Z,2.23
2023-02-03T19:22:05.721Z,2.33
2023-02-03T19:24:32.773Z,2.00
2023-02-03T19:26:59.833Z,2.57
2023-02-03T19:29:26.968Z,2.20
2023-02-03T19:31:54.192Z,2.00
2023-02-03T19:34:21.295Z,1.80
2023-02-03T19:36:48.598Z,2.00
2023-02-03T19:39:16.113Z,1.83
2023-02-03T19:41:43.186Z,1.60
2023-02-03T19:44:10.284Z,1.73
2023-02-03T19:46:37.929Z,1.90
2023-02-03T19:49:11.040Z,1.70
2023-02-03T19:51:38.462Z,1.80
2023-02-03T19:54:05.580Z,2.50
2023-02-03T19:56:32.919Z,2.10
2023-02-03T19:59:00.003Z,1.47
2023-02-03T20:01:27.295Z,1.93
2023-02-03T20:03:54.396Z,1.90
2023-02-03T20:06:23.248Z,1.80
2023-02-03T20:08:50.368Z,2.00
2023-02-03T20:11:19.431Z,1.60
2023-02-03T20:13:46.953Z,1.60
2023-02-03T20:16:14.400Z,1.50
2023-02-03T20:18:41.748Z,1.67
2023-02-03T20:21:09.487Z,1.90
2023-02-03T20:23:36.800Z,2.10
2023-02-03T20:26:03.956Z,1.87
2023-02-03T20:28:31.077Z,1.63
2023-02-03T20:30:59.256Z,1.63
2023-02-03T20:33:27.845Z,1.37
2023-02-03T20:35:55.030Z,2.10
2023-02-03T20:38:22.258Z,1.77
2023-02-03T20:40:49.744Z,1.40
2023-02-03T20:43:20.079Z,1.70
2023-02-03T20:45:49.369Z,1.73
2023-02-03T20:48:17.290Z,1.97
2023-02-03T20:50:47.466Z,1.40
2023-02-03T20:53:16.335Z,1.60
2023-02-03T20:55:43.432Z,2.00
2023-02-03T20:58:26.806Z,1.63
2023-02-03T21:00:57.092Z,1.90
2023-02-03T21:03:43.646Z,1.37
2023-02-03T21:06:14.667Z,1.97
2023-02-03T21:08:43.120Z,1.67
2023-02-03T21:11:11.728Z,1.87
2023-02-03T21:13:39.125Z,1.93
2023-02-03T21:16:12.167Z,1.53
2023-02-03T21:18:40.197Z,1.43
2023-02-03T21:21:28.729Z,1.90
2023-02-03T21:23:56.177Z,1.40
2023-02-03T21:26:27.487Z,1.83
2023-02-03T21:28:56.244Z,1.87
2023-02-03T21:31:30.643Z,1.80
2023-02-03T21:33:58.843Z,1.70
2023-02-03T21:36:31.465Z,1.93
2023-02-03T21:38:59.981Z,1.50
2023-02-03T21:41:28.214Z,2.03
2023-02-03T21:43:56.982Z,2.07
2023-02-03T21:46:26.203Z,2.27
2023-02-03T21:48:57.313Z,1.70
2023-02-03T21:51:26.565Z,1.70
2023-02-03T21:53:54.708Z,1.60
2023-02-03T21:56:24.585Z,2.17
2023-02-03T21:58:52.311Z,1.33
2023-02-03T22:01:20.020Z,1.30
2023-02-03T22:03:51.707Z,1.40
2023-02-03T22:06:23.899Z,1.63
2023-02-03T22:08:52.354Z,1.43
2023-02-03T22:11:20.198Z,1.50
2023-02-03T22:13:47.754Z,1.60
2023-02-03T22:16:17.054Z,1.33
2023-02-03T22:18:45.203Z,1.23
2023-02-03T22:21:12.384Z,1.40
2023-02-03T22:23:39.843Z,1.37
2023-02-03T22:26:07.453Z,1.60
2023-02-03T22:28:34.616Z,1.80
2023-02-03T22:31:04.133Z,1.70
2023-02-03T22:33:31.960Z,1.80
2023-02-03T22:35:59.019Z,1.70
2023-02-03T22:38:26.247Z,1.33
2023-02-03T22:40:53.686Z,2.00
2023-02-03T22:43:20.757Z,1.57
2023-02-03T22:45:47.902Z,1.40
2023-02-03T22:48:15.044Z,1.40
2023-02-03T22:50:42.342Z,1.40
2023-02-03T22:53:09.628Z,1.60
2023-02-03T22:55:39.824Z,1.50
2023-02-03T22:58:07.690Z,1.27
2023-02-03T23:00:36.869Z,1.00
2023-02-03T23:03:04.972Z,1.17
2023-02-03T23:05:32.215Z,1.00
2023-02-03T23:07:59.305Z,1.27
2023-02-03T23:10:30.559Z,1.47
2023-02-03T23:12:58.728Z,1.20
2023-02-03T23:15:25.963Z,1.13
2023-02-03T23:17:53.033Z,1.40
2023-02-03T23:20:20.497Z,1.20
2023-02-03T23:22:48.030Z,1.00
2023-02-03T23:25:15.311Z,1.10
2023-02-03T23:27:42.426Z,0.87
2023-02-03T23:30:09.976Z,0.80
2023-02-03T23:32:37.021Z,0.93
2023-02-03T23:35:23.297Z,1.20
2023-02-03T23:37:50.339Z,1.20
2023-02-03T23:40:17.516Z,1.30
2023-02-03T23:42:44.591Z,1.07
2023-02-03T23:45:12.624Z,1.27
2023-02-03T23:47:40.981Z,1.27
2023-02-03T23:50:09.160Z,0.90
2023-02-03T23:52:36.637Z,0.90
2023-02-03T23:55:07.913Z,0.93
2023-02-03T23:57:35.214Z,0.60
